sensor_id;sensor_type;location;lat;lon;timestamp;pressure;altitude;pressure_sealevel;temperature;humidity
27613;BME280;15036;48.094;-1.690;2023-01-30T00:01:40;102308.94;;;11.34;52.77
27613;BME280;15036;48.094;-1.690;2023-01-30T00:04:07;102306.66;;;11.21;52.83
27613;BME280;15036;48.094;-1.690;2023-01-30T00:06:32;102298.66;;;11.28;52.73
27613;BME280;15036;48.094;-1.690;2023-01-30T00:08:58;102298.25;;;11.07;52.92
27613;BME280;15036;48.094;-1.690;2023-01-30T00:11:23;102302.59;;;11.33;52.52
27613;BME280;15036;48.094;-1.690;2023-01-30T00:13:49;102305.84;;;11.29;52.62
27613;BME280;15036;48.094;-1.690;2023-01-30T00:16:16;102313.53;;;11.33;52.37
27613;BME280;15036;48.094;-1.690;2023-01-30T00:18:42;102305.53;;;11.32;52.33
27613;BME280;15036;48.094;-1.690;2023-01-30T00:21:09;102290.91;;;11.07;52.81
27613;BME280;15036;48.094;-1.690;2023-01-30T00:23:36;102293.63;;;11.07;52.92
27613;BME280;15036;48.094;-1.690;2023-01-30T00:26:02;102300.19;;;10.81;53.42
27613;BME280;15036;48.094;-1.690;2023-01-30T00:28:28;102288.25;;;10.56;54.08
27613;BME280;15036;48.094;-1.690;2023-01-30T00:30:54;102288.81;;;11.01;53.07
27613;BME280;15036;48.094;-1.690;2023-01-30T00:33:21;102296.91;;;11.11;53.10
27613;BME280;15036;48.094;-1.690;2023-01-30T00:35:48;102282.72;;;11.15;52.84
27613;BME280;15036;48.094;-1.690;2023-01-30T00:38:15;102278.25;;;11.06;53.18
27613;BME280;15036;48.094;-1.690;2023-01-30T00:40:41;102269.59;;;11.27;52.83
27613;BME280;15036;48.094;-1.690;2023-01-30T00:43:06;102268.81;;;11.43;52.61
27613;BME280;15036;48.094;-1.690;2023-01-30T00:45:51;102265.16;;;11.18;53.23
27613;BME280;15036;48.094;-1.690;2023-01-30T00:48:36;102260.81;;;10.99;53.90
27613;BME280;15036;48.094;-1.690;2023-01-30T00:51:02;102267.41;;;10.81;54.37
27613;BME280;15036;48.094;-1.690;2023-01-30T00:53:27;102263.75;;;11.06;53.76
27613;BME280;15036;48.094;-1.690;2023-01-30T00:55:54;102268.88;;;11.09;53.86
27613;BME280;15036;48.094;-1.690;2023-01-30T00:58:21;102260.72;;;11.17;53.87
27613;BME280;15036;48.094;-1.690;2023-01-30T01:00:47;102248.97;;;10.83;54.53
27613;BME280;15036;48.094;-1.690;2023-01-30T01:03:13;102231.47;;;10.60;55.25
27613;BME280;15036;48.094;-1.690;2023-01-30T01:05:38;102229.81;;;10.75;55.01
27613;BME280;15036;48.094;-1.690;2023-01-30T01:08:04;102225.75;;;10.87;54.79
27613;BME280;15036;48.094;-1.690;2023-01-30T01:10:30;102238.22;;;10.81;55.09
27613;BME280;15036;48.094;-1.690;2023-01-30T01:12:56;102236.50;;;10.46;56.31
27613;BME280;15036;48.094;-1.690;2023-01-30T01:15:22;102234.94;;;10.44;56.38
27613;BME280;15036;48.094;-1.690;2023-01-30T01:17:48;102238.38;;;10.88;55.52
27613;BME280;15036;48.094;-1.690;2023-01-30T01:20:14;102239.06;;;10.90;55.53
27613;BME280;15036;48.094;-1.690;2023-01-30T01:22:40;102216.56;;;10.54;56.53
27613;BME280;15036;48.094;-1.690;2023-01-30T01:25:06;102193.22;;;10.60;56.19
27613;BME280;15036;48.094;-1.690;2023-01-30T01:27:31;102196.19;;;10.82;56.02
27613;BME280;15036;48.094;-1.690;2023-01-30T01:29:57;102209.28;;;10.63;56.57
27613;BME280;15036;48.094;-1.690;2023-01-30T01:32:22;102207.56;;;10.62;56.74
27613;BME280;15036;48.094;-1.690;2023-01-30T01:34:48;102213.22;;;11.18;55.27
27613;BME280;15036;48.094;-1.690;2023-01-30T01:37:13;102216.91;;;10.93;56.15
27613;BME280;15036;48.094;-1.690;2023-01-30T01:39:39;102215.69;;;10.95;56.20
27613;BME280;15036;48.094;-1.690;2023-01-30T01:42:25;102215.59;;;11.05;56.30
27613;BME280;15036;48.094;-1.690;2023-01-30T01:47:44;102212.13;;;10.95;56.64
27613;BME280;15036;48.094;-1.690;2023-01-30T01:50:20;102213.13;;;10.94;56.73
27613;BME280;15036;48.094;-1.690;2023-01-30T01:52:48;102214.88;;;10.95;56.62
27613;BME280;15036;48.094;-1.690;2023-01-30T01:55:17;102215.88;;;10.94;56.80
27613;BME280;15036;48.094;-1.690;2023-01-30T01:57:49;102223.59;;;11.06;56.58
27613;BME280;15036;48.094;-1.690;2023-01-30T02:00:18;102222.63;;;10.74;57.04
27613;BME280;15036;48.094;-1.690;2023-01-30T02:02:56;102230.94;;;11.06;56.54
27613;BME280;15036;48.094;-1.690;2023-01-30T02:05:24;102226.09;;;10.92;56.94
27613;BME280;15036;48.094;-1.690;2023-01-30T02:08:56;102232.63;;;10.99;56.83
27613;BME280;15036;48.094;-1.690;2023-01-30T02:13:31;102233.16;;;11.02;57.01
27613;BME280;15036;48.094;-1.690;2023-01-30T02:15:59;102230.88;;;10.90;56.97
27613;BME280;15036;48.094;-1.690;2023-01-30T02:18:26;102233.69;;;11.06;56.96
27613;BME280;15036;48.094;-1.690;2023-01-30T02:24:06;102227.00;;;10.59;58.18
27613;BME280;15036;48.094;-1.690;2023-01-30T02:29:30;102222.75;;;11.06;57.32
27613;BME280;15036;48.094;-1.690;2023-01-30T02:43:15;102220.97;;;10.81;59.01
27613;BME280;15036;48.094;-1.690;2023-01-30T02:48:24;102226.28;;;10.90;58.90
27613;BME280;15036;48.094;-1.690;2023-01-30T02:51:04;102227.72;;;10.69;59.69
27613;BME280;15036;48.094;-1.690;2023-01-30T02:53:32;102233.88;;;10.71;59.63
27613;BME280;15036;48.094;-1.690;2023-01-30T02:55:58;102221.34;;;10.94;59.14
27613;BME280;15036;48.094;-1.690;2023-01-30T02:58:26;102211.59;;;10.83;59.41
27613;BME280;15036;48.094;-1.690;2023-01-30T03:01:30;102220.91;;;10.73;59.84
27613;BME280;15036;48.094;-1.690;2023-01-30T03:09:52;102217.97;;;11.08;59.18
27613;BME280;15036;48.094;-1.690;2023-01-30T03:15:32;102205.31;;;10.99;59.74
27613;BME280;15036;48.094;-1.690;2023-01-30T03:17:59;102213.38;;;11.08;59.75
27613;BME280;15036;48.094;-1.690;2023-01-30T03:20:25;102209.97;;;11.14;59.46
27613;BME280;15036;48.094;-1.690;2023-01-30T03:22:52;102214.66;;;10.88;60.51
27613;BME280;15036;48.094;-1.690;2023-01-30T03:25:23;102215.09;;;11.17;59.55
27613;BME280;15036;48.094;-1.690;2023-01-30T03:27:52;102213.69;;;11.05;59.80
27613;BME280;15036;48.094;-1.690;2023-01-30T03:30:19;102206.03;;;11.09;59.91
27613;BME280;15036;48.094;-1.690;2023-01-30T03:32:44;102218.28;;;10.97;60.42
27613;BME280;15036;48.094;-1.690;2023-01-30T03:35:10;102217.94;;;11.00;60.38
27613;BME280;15036;48.094;-1.690;2023-01-30T03:37:36;102216.91;;;10.93;60.49
27613;BME280;15036;48.094;-1.690;2023-01-30T03:40:01;102218.97;;;10.99;60.44
27613;BME280;15036;48.094;-1.690;2023-01-30T03:42:27;102211.06;;;10.88;60.73
27613;BME280;15036;48.094;-1.690;2023-01-30T03:44:52;102213.28;;;10.84;61.09
27613;BME280;15036;48.094;-1.690;2023-01-30T03:47:18;102209.25;;;11.04;60.41
27613;BME280;15036;48.094;-1.690;2023-01-30T03:49:43;102204.94;;;10.94;60.84
27613;BME280;15036;48.094;-1.690;2023-01-30T03:52:08;102205.00;;;11.18;60.23
27613;BME280;15036;48.094;-1.690;2023-01-30T03:54:34;102195.06;;;11.01;60.67
27613;BME280;15036;48.094;-1.690;2023-01-30T03:56:59;102190.66;;;11.16;60.34
27613;BME280;15036;48.094;-1.690;2023-01-30T03:59:24;102187.19;;;10.98;60.88
27613;BME280;15036;48.094;-1.690;2023-01-30T04:01:50;102179.69;;;11.00;60.96
27613;BME280;15036;48.094;-1.690;2023-01-30T04:04:15;102180.19;;;11.03;61.10
27613;BME280;15036;48.094;-1.690;2023-01-30T04:06:41;102188.50;;;10.78;61.75
27613;BME280;15036;48.094;-1.690;2023-01-30T04:09:06;102190.31;;;11.03;61.00
27613;BME280;15036;48.094;-1.690;2023-01-30T04:11:31;102186.22;;;11.07;61.10
27613;BME280;15036;48.094;-1.690;2023-01-30T04:13:57;102180.19;;;11.03;61.33
27613;BME280;15036;48.094;-1.690;2023-01-30T04:16:26;102176.25;;;10.90;61.77
27613;BME280;15036;48.094;-1.690;2023-01-30T04:18:51;102172.38;;;10.59;62.86
27613;BME280;15036;48.094;-1.690;2023-01-30T04:21:18;102177.16;;;10.57;62.84
27613;BME280;15036;48.094;-1.690;2023-01-30T04:23:43;102182.00;;;10.71;62.57
27613;BME280;15036;48.094;-1.690;2023-01-30T04:26:09;102175.00;;;10.76;62.53
27613;BME280;15036;48.094;-1.690;2023-01-30T04:28:35;102178.81;;;10.83;62.10
27613;BME280;15036;48.094;-1.690;2023-01-30T04:31:02;102178.94;;;10.82;62.39
27613;BME280;15036;48.094;-1.690;2023-01-30T04:33:27;102184.03;;;10.69;63.11
27613;BME280;15036;48.094;-1.690;2023-01-30T04:35:58;102174.59;;;11.05;62.25
27613;BME280;15036;48.094;-1.690;2023-01-30T04:38:25;102175.25;;;10.99;62.25
27613;BME280;15036;48.094;-1.690;2023-01-30T04:40:52;102183.81;;;11.12;61.92
27613;BME280;15036;48.094;-1.690;2023-01-30T04:43:18;102175.66;;;10.70;63.13
27613;BME280;15036;48.094;-1.690;2023-01-30T04:45:45;102190.31;;;11.11;62.12
27613;BME280;15036;48.094;-1.690;2023-01-30T04:48:11;102179.03;;;11.06;62.56
27613;BME280;15036;48.094;-1.690;2023-01-30T04:50:38;102184.28;;;10.99;62.57
27613;BME280;15036;48.094;-1.690;2023-01-30T04:53:03;102186.06;;;11.24;61.79
27613;BME280;15036;48.094;-1.690;2023-01-30T04:55:29;102190.63;;;11.00;62.64
27613;BME280;15036;48.094;-1.690;2023-01-30T04:57:54;102180.66;;;10.83;63.00
27613;BME280;15036;48.094;-1.690;2023-01-30T05:00:20;102177.34;;;11.13;62.34
27613;BME280;15036;48.094;-1.690;2023-01-30T05:02:45;102185.19;;;10.58;64.06
27613;BME280;15036;48.094;-1.690;2023-01-30T05:05:10;102179.84;;;10.90;63.30
27613;BME280;15036;48.094;-1.690;2023-01-30T05:07:36;102183.31;;;11.08;62.92
27613;BME280;15036;48.094;-1.690;2023-01-30T05:10:01;102187.78;;;11.33;62.37
27613;BME280;15036;48.094;-1.690;2023-01-30T05:12:27;102182.00;;;11.53;61.78
27613;BME280;15036;48.094;-1.690;2023-01-30T05:14:53;102175.84;;;11.34;61.87
27613;BME280;15036;48.094;-1.690;2023-01-30T05:17:18;102174.94;;;11.18;62.87
27613;BME280;15036;48.094;-1.690;2023-01-30T05:19:44;102186.09;;;11.32;62.12
27613;BME280;15036;48.094;-1.690;2023-01-30T05:22:09;102176.50;;;11.20;62.73
27613;BME280;15036;48.094;-1.690;2023-01-30T05:24:35;102176.69;;;11.43;61.91
27613;BME280;15036;48.094;-1.690;2023-01-30T05:27:01;102187.44;;;11.28;62.65
27613;BME280;15036;48.094;-1.690;2023-01-30T05:29:26;102187.41;;;11.12;63.46
27613;BME280;15036;48.094;-1.690;2023-01-30T05:31:52;102181.63;;;11.40;62.56
27613;BME280;15036;48.094;-1.690;2023-01-30T05:34:17;102185.56;;;11.37;62.63
27613;BME280;15036;48.094;-1.690;2023-01-30T05:36:42;102180.09;;;11.53;62.19
27613;BME280;15036;48.094;-1.690;2023-01-30T05:39:08;102175.66;;;11.44;62.27
27613;BME280;15036;48.094;-1.690;2023-01-30T05:41:33;102179.47;;;11.67;61.81
27613;BME280;15036;48.094;-1.690;2023-01-30T05:43:59;102172.75;;;11.46;61.98
27613;BME280;15036;48.094;-1.690;2023-01-30T05:46:24;102182.16;;;11.59;61.94
27613;BME280;15036;48.094;-1.690;2023-01-30T05:48:49;102179.09;;;11.46;62.31
27613;BME280;15036;48.094;-1.690;2023-01-30T05:51:22;102174.66;;;11.69;61.86
27613;BME280;15036;48.094;-1.690;2023-01-30T05:53:49;102173.97;;;11.67;61.64
27613;BME280;15036;48.094;-1.690;2023-01-30T05:56:15;102169.69;;;11.49;62.42
27613;BME280;15036;48.094;-1.690;2023-01-30T05:58:41;102166.09;;;11.56;62.36
27613;BME280;15036;48.094;-1.690;2023-01-30T06:01:10;102178.41;;;11.44;62.71
27613;BME280;15036;48.094;-1.690;2023-01-30T06:03:36;102173.25;;;11.41;62.54
27613;BME280;15036;48.094;-1.690;2023-01-30T06:06:03;102168.16;;;11.54;61.92
27613;BME280;15036;48.094;-1.690;2023-01-30T06:08:30;102172.44;;;11.41;62.69
27613;BME280;15036;48.094;-1.690;2023-01-30T06:11:15;102172.09;;;11.76;61.93
27613;BME280;15036;48.094;-1.690;2023-01-30T06:13:41;102170.25;;;11.68;62.05
27613;BME280;15036;48.094;-1.690;2023-01-30T06:16:08;102179.59;;;11.58;62.30
27613;BME280;15036;48.094;-1.690;2023-01-30T06:18:36;102171.22;;;11.43;62.25
27613;BME280;15036;48.094;-1.690;2023-01-30T06:21:01;102164.72;;;11.52;62.71
27613;BME280;15036;48.094;-1.690;2023-01-30T06:23:26;102180.63;;;11.41;62.94
27613;BME280;15036;48.094;-1.690;2023-01-30T06:25:52;102186.94;;;11.65;62.05
27613;BME280;15036;48.094;-1.690;2023-01-30T06:28:18;102180.09;;;11.53;62.29
27613;BME280;15036;48.094;-1.690;2023-01-30T06:30:44;102182.13;;;11.35;62.88
27613;BME280;15036;48.094;-1.690;2023-01-30T06:33:10;102184.53;;;11.30;63.13
27613;BME280;15036;48.094;-1.690;2023-01-30T06:35:39;102185.09;;;11.90;61.63
27613;BME280;15036;48.094;-1.690;2023-01-30T06:38:06;102194.69;;;11.78;62.03
27613;BME280;15036;48.094;-1.690;2023-01-30T06:40:38;102194.81;;;12.00;61.29
27613;BME280;15036;48.094;-1.690;2023-01-30T06:43:04;102204.75;;;12.01;61.00
27613;BME280;15036;48.094;-1.690;2023-01-30T06:45:29;102197.56;;;11.92;61.51
27613;BME280;15036;48.094;-1.690;2023-01-30T06:47:55;102190.88;;;12.03;61.20
27613;BME280;15036;48.094;-1.690;2023-01-30T06:50:24;102201.16;;;11.93;61.29
27613;BME280;15036;48.094;-1.690;2023-01-30T06:52:50;102205.44;;;11.87;61.64
27613;BME280;15036;48.094;-1.690;2023-01-30T06:55:18;102211.56;;;11.57;62.37
27613;BME280;15036;48.094;-1.690;2023-01-30T06:57:44;102195.88;;;11.67;62.41
27613;BME280;15036;48.094;-1.690;2023-01-30T07:00:13;102203.41;;;11.81;61.96
27613;BME280;15036;48.094;-1.690;2023-01-30T07:02:39;102200.16;;;11.86;61.89
27613;BME280;15036;48.094;-1.690;2023-01-30T07:05:07;102201.34;;;11.83;61.80
27613;BME280;15036;48.094;-1.690;2023-01-30T07:07:34;102212.97;;;11.69;62.30
27613;BME280;15036;48.094;-1.690;2023-01-30T07:09:59;102218.44;;;11.85;62.02
27613;BME280;15036;48.094;-1.690;2023-01-30T07:12:26;102216.22;;;11.73;62.16
27613;BME280;15036;48.094;-1.690;2023-01-30T07:14:52;102217.38;;;11.54;62.65
27613;BME280;15036;48.094;-1.690;2023-01-30T07:17:18;102223.34;;;11.50;62.98
27613;BME280;15036;48.094;-1.690;2023-01-30T07:19:43;102216.34;;;11.47;63.13
27613;BME280;15036;48.094;-1.690;2023-01-30T07:22:10;102228.47;;;11.45;63.57
27613;BME280;15036;48.094;-1.690;2023-01-30T07:24:35;102233.00;;;11.86;62.48
27613;BME280;15036;48.094;-1.690;2023-01-30T07:27:01;102231.78;;;11.72;62.74
27613;BME280;15036;48.094;-1.690;2023-01-30T07:29:26;102232.06;;;11.53;63.27
27613;BME280;15036;48.094;-1.690;2023-01-30T07:31:51;102235.19;;;11.98;62.25
27613;BME280;15036;48.094;-1.690;2023-01-30T07:34:17;102238.28;;;11.79;62.92
27613;BME280;15036;48.094;-1.690;2023-01-30T07:36:42;102237.53;;;11.61;63.14
27613;BME280;15036;48.094;-1.690;2023-01-30T07:39:08;102244.94;;;11.93;62.27
27613;BME280;15036;48.094;-1.690;2023-01-30T07:41:34;102244.09;;;11.76;62.91
27613;BME280;15036;48.094;-1.690;2023-01-30T07:43:59;102242.38;;;11.83;62.87
27613;BME280;15036;48.094;-1.690;2023-01-30T07:46:25;102241.31;;;12.16;62.02
27613;BME280;15036;48.094;-1.690;2023-01-30T07:48:50;102248.03;;;12.22;61.22
27613;BME280;15036;48.094;-1.690;2023-01-30T07:51:16;102248.72;;;12.16;61.88
27613;BME280;15036;48.094;-1.690;2023-01-30T07:53:41;102256.91;;;11.76;62.54
27613;BME280;15036;48.094;-1.690;2023-01-30T07:56:11;102250.72;;;12.30;61.54
27613;BME280;15036;48.094;-1.690;2023-01-30T07:58:38;102257.06;;;12.14;61.94
27613;BME280;15036;48.094;-1.690;2023-01-30T08:01:04;102256.56;;;12.19;61.67
27613;BME280;15036;48.094;-1.690;2023-01-30T08:03:30;102263.72;;;12.28;61.67
27613;BME280;15036;48.094;-1.690;2023-01-30T08:05:55;102279.34;;;12.03;62.04
27613;BME280;15036;48.094;-1.690;2023-01-30T08:08:21;102269.75;;;12.24;61.51
27613;BME280;15036;48.094;-1.690;2023-01-30T08:10:49;102279.66;;;11.92;61.94
27613;BME280;15036;48.094;-1.690;2023-01-30T08:13:14;102277.09;;;12.31;61.34
27613;BME280;15036;48.094;-1.690;2023-01-30T08:15:40;102275.56;;;12.04;62.11
27613;BME280;15036;48.094;-1.690;2023-01-30T08:18:05;102275.72;;;12.35;61.30
27613;BME280;15036;48.094;-1.690;2023-01-30T08:20:31;102282.06;;;12.11;61.94
27613;BME280;15036;48.094;-1.690;2023-01-30T08:22:57;102295.75;;;12.03;62.26
27613;BME280;15036;48.094;-1.690;2023-01-30T08:25:23;102295.25;;;12.08;62.40
27613;BME280;15036;48.094;-1.690;2023-01-30T08:27:49;102292.34;;;12.01;62.39
27613;BME280;15036;48.094;-1.690;2023-01-30T08:30:15;102301.91;;;12.30;62.07
27613;BME280;15036;48.094;-1.690;2023-01-30T08:32:40;102293.31;;;12.41;61.79
27613;BME280;15036;48.094;-1.690;2023-01-30T08:35:06;102289.72;;;12.48;61.41
27613;BME280;15036;48.094;-1.690;2023-01-30T08:37:32;102303.59;;;12.47;61.41
27613;BME280;15036;48.094;-1.690;2023-01-30T08:39:57;102295.06;;;12.42;61.30
27613;BME280;15036;48.094;-1.690;2023-01-30T08:42:23;102299.84;;;12.40;61.98
27613;BME280;15036;48.094;-1.690;2023-01-30T08:44:48;102292.91;;;12.68;61.32
27613;BME280;15036;48.094;-1.690;2023-01-30T08:47:14;102297.69;;;12.74;61.37
27613;BME280;15036;48.094;-1.690;2023-01-30T08:49:39;102293.75;;;12.84;61.08
27613;BME280;15036;48.094;-1.690;2023-01-30T08:52:04;102297.69;;;12.82;61.48
27613;BME280;15036;48.094;-1.690;2023-01-30T08:54:30;102297.84;;;12.88;61.35
27613;BME280;15036;48.094;-1.690;2023-01-30T08:56:55;102300.81;;;12.63;61.77
27613;BME280;15036;48.094;-1.690;2023-01-30T08:59:20;102306.81;;;12.66;61.81
27613;BME280;15036;48.094;-1.690;2023-01-30T09:01:46;102309.50;;;12.82;61.14
27613;BME280;15036;48.094;-1.690;2023-01-30T09:04:11;102309.00;;;12.79;61.58
27613;BME280;15036;48.094;-1.690;2023-01-30T09:06:36;102309.91;;;12.71;61.44
27613;BME280;15036;48.094;-1.690;2023-01-30T09:09:02;102312.84;;;12.46;62.50
27613;BME280;15036;48.094;-1.690;2023-01-30T09:11:27;102305.78;;;12.75;61.77
27613;BME280;15036;48.094;-1.690;2023-01-30T09:13:53;102302.16;;;12.83;61.55
27613;BME280;15036;48.094;-1.690;2023-01-30T09:16:18;102297.38;;;12.69;61.68
27613;BME280;15036;48.094;-1.690;2023-01-30T09:18:44;102309.34;;;12.76;62.18
27613;BME280;15036;48.094;-1.690;2023-01-30T09:21:10;102313.75;;;13.01;61.65
27613;BME280;15036;48.094;-1.690;2023-01-30T09:23:36;102303.13;;;12.98;61.44
27613;BME280;15036;48.094;-1.690;2023-01-30T09:26:03;102298.56;;;12.74;61.88
27613;BME280;15036;48.094;-1.690;2023-01-30T09:28:29;102304.69;;;12.92;62.16
27613;BME280;15036;48.094;-1.690;2023-01-30T09:31:01;102300.09;;;12.85;61.99
27613;BME280;15036;48.094;-1.690;2023-01-30T09:33:26;102303.13;;;13.06;61.54
27613;BME280;15036;48.094;-1.690;2023-01-30T09:35:52;102299.44;;;13.22;61.50
27613;BME280;15036;48.094;-1.690;2023-01-30T09:38:18;102306.94;;;13.66;60.60
27613;BME280;15036;48.094;-1.690;2023-01-30T09:46:37;102301.13;;;13.61;60.53
27613;BME280;15036;48.094;-1.690;2023-01-30T09:49:29;102310.13;;;13.47;61.02
27613;BME280;15036;48.094;-1.690;2023-01-30T09:55:00;102319.16;;;13.56;60.85
27613;BME280;15036;48.094;-1.690;2023-01-30T09:57:26;102317.97;;;13.58;60.26
27613;BME280;15036;48.094;-1.690;2023-01-30T10:00:05;102319.53;;;13.14;61.82
27613;BME280;15036;48.094;-1.690;2023-01-30T10:05:05;102309.91;;;13.79;60.58
27613;BME280;15036;48.094;-1.690;2023-01-30T10:07:41;102313.91;;;13.46;61.27
27613;BME280;15036;48.094;-1.690;2023-01-30T10:10:15;102312.38;;;13.74;60.47
27613;BME280;15036;48.094;-1.690;2023-01-30T10:12:55;102316.63;;;13.77;60.59
27613;BME280;15036;48.094;-1.690;2023-01-30T10:15:51;102318.09;;;13.87;60.13
27613;BME280;15036;48.094;-1.690;2023-01-30T10:22:09;102322.19;;;13.91;60.60
27613;BME280;15036;48.094;-1.690;2023-01-30T10:26:45;102323.19;;;13.07;62.28
27613;BME280;15036;48.094;-1.690;2023-01-30T10:29:16;102326.47;;;13.41;61.84
27613;BME280;15036;48.094;-1.690;2023-01-30T10:31:54;102316.00;;;13.67;61.55
27613;BME280;15036;48.094;-1.690;2023-01-30T10:34:36;102317.81;;;13.82;61.06
27613;BME280;15036;48.094;-1.690;2023-01-30T10:42:55;102299.56;;;13.89;61.25
27613;BME280;15036;48.094;-1.690;2023-01-30T10:45:33;102300.09;;;14.30;60.64
27613;BME280;15036;48.094;-1.690;2023-01-30T10:48:19;102301.47;;;14.26;60.51
27613;BME280;15036;48.094;-1.690;2023-01-30T10:50:56;102300.31;;;14.58;60.00
27613;BME280;15036;48.094;-1.690;2023-01-30T10:53:46;102298.06;;;14.47;60.31
27613;BME280;15036;48.094;-1.690;2023-01-30T10:56:49;102285.44;;;14.52;60.19
27613;BME280;15036;48.094;-1.690;2023-01-30T11:02:19;102287.66;;;14.57;59.67
27613;BME280;15036;48.094;-1.690;2023-01-30T11:04:58;102282.06;;;14.94;59.38
27613;BME280;15036;48.094;-1.690;2023-01-30T11:07:25;102287.28;;;14.74;59.82
27613;BME280;15036;48.094;-1.690;2023-01-30T11:09:53;102288.97;;;14.90;59.89
27613;BME280;15036;48.094;-1.690;2023-01-30T11:12:18;102285.38;;;14.90;60.05
27613;BME280;15036;48.094;-1.690;2023-01-30T11:15:04;102288.53;;;15.01;59.85
27613;BME280;15036;48.094;-1.690;2023-01-30T11:17:34;102287.59;;;14.80;60.13
27613;BME280;15036;48.094;-1.690;2023-01-30T11:20:04;102285.84;;;14.78;60.67
27613;BME280;15036;48.094;-1.690;2023-01-30T11:22:33;102286.28;;;15.26;59.78
27613;BME280;15036;48.094;-1.690;2023-01-30T11:25:01;102287.66;;;14.57;61.28
27613;BME280;15036;48.094;-1.690;2023-01-30T11:27:30;102288.97;;;15.05;59.98
27613;BME280;15036;48.094;-1.690;2023-01-30T11:30:12;102284.16;;;14.92;60.22
27613;BME280;15036;48.094;-1.690;2023-01-30T11:32:40;102286.06;;;14.77;60.58
27613;BME280;15036;48.094;-1.690;2023-01-30T11:37:33;102280.44;;;14.70;60.97
27613;BME280;15036;48.094;-1.690;2023-01-30T11:40:22;102278.53;;;15.00;60.54
27613;BME280;15036;48.094;-1.690;2023-01-30T11:43:00;102271.66;;;15.25;59.89
27613;BME280;15036;48.094;-1.690;2023-01-30T11:45:25;102270.34;;;15.21;60.14
27613;BME280;15036;48.094;-1.690;2023-01-30T11:47:59;102265.22;;;15.33;59.80
27613;BME280;15036;48.094;-1.690;2023-01-30T11:50:39;102265.59;;;15.30;60.07
27613;BME280;15036;48.094;-1.690;2023-01-30T11:53:25;102262.09;;;15.21;60.25
27613;BME280;15036;48.094;-1.690;2023-01-30T11:55:55;102256.94;;;15.47;59.85
27613;BME280;15036;48.094;-1.690;2023-01-30T11:58:21;102258.56;;;15.56;59.84
27613;BME280;15036;48.094;-1.690;2023-01-30T12:00:47;102248.78;;;15.54;59.70
27613;BME280;15036;48.094;-1.690;2023-01-30T12:03:16;102258.03;;;15.68;59.51
27613;BME280;15036;48.094;-1.690;2023-01-30T12:05:45;102253.97;;;15.63;60.10
27613;BME280;15036;48.094;-1.690;2023-01-30T12:10:51;102230.50;;;15.68;60.13
27613;BME280;15036;48.094;-1.690;2023-01-30T12:13:36;102234.88;;;15.83;59.91
27613;BME280;15036;48.094;-1.690;2023-01-30T12:16:18;102225.91;;;15.75;60.08
27613;BME280;15036;48.094;-1.690;2023-01-30T12:19:04;102227.75;;;15.17;61.81
27613;BME280;15036;48.094;-1.690;2023-01-30T12:24:27;102223.09;;;15.68;60.90
27613;BME280;15036;48.094;-1.690;2023-01-30T12:30:46;102218.81;;;15.66;60.90
27613;BME280;15036;48.094;-1.690;2023-01-30T12:33:11;102213.22;;;16.01;59.98
27613;BME280;15036;48.094;-1.690;2023-01-30T12:38:38;102208.91;;;15.71;60.99
27613;BME280;15036;48.094;-1.690;2023-01-30T12:47:11;102201.16;;;15.81;60.84
27613;BME280;15036;48.094;-1.690;2023-01-30T12:49:57;102198.59;;;16.01;60.41
27613;BME280;15036;48.094;-1.690;2023-01-30T12:58:31;102186.78;;;16.07;60.27
27613;BME280;15036;48.094;-1.690;2023-01-30T13:01:15;102184.28;;;15.84;61.30
27613;BME280;15036;48.094;-1.690;2023-01-30T13:14:20;102189.81;;;15.91;61.22
27613;BME280;15036;48.094;-1.690;2023-01-30T13:17:14;102200.34;;;15.59;62.23
27613;BME280;15036;48.094;-1.690;2023-01-30T13:22:45;102177.00;;;15.77;61.87
27613;BME280;15036;48.094;-1.690;2023-01-30T13:27:51;102185.22;;;15.98;61.87
27613;BME280;15036;48.094;-1.690;2023-01-30T13:30:18;102189.78;;;15.84;62.42
27613;BME280;15036;48.094;-1.690;2023-01-30T13:32:50;102186.81;;;15.86;62.48
27613;BME280;15036;48.094;-1.690;2023-01-30T13:35:33;102179.13;;;16.02;62.13
27613;BME280;15036;48.094;-1.690;2023-01-30T13:38:03;102177.34;;;16.22;61.61
27613;BME280;15036;48.094;-1.690;2023-01-30T13:40:36;102170.34;;;16.20;61.91
27613;BME280;15036;48.094;-1.690;2023-01-30T13:43:12;102175.09;;;16.32;61.49
27613;BME280;15036;48.094;-1.690;2023-01-30T13:45:43;102177.19;;;16.30;61.46
27613;BME280;15036;48.094;-1.690;2023-01-30T13:51:36;102169.03;;;16.43;61.71
27613;BME280;15036;48.094;-1.690;2023-01-30T14:07:20;102175.88;;;16.54;61.95
27613;BME280;15036;48.094;-1.690;2023-01-30T14:12:46;102175.59;;;16.15;62.68
27613;BME280;15036;48.094;-1.690;2023-01-30T14:17:38;102180.09;;;16.50;62.07
27613;BME280;15036;48.094;-1.690;2023-01-30T14:20:20;102186.97;;;16.61;62.06
27613;BME280;15036;48.094;-1.690;2023-01-30T14:23:34;102183.25;;;16.88;60.91
27613;BME280;15036;48.094;-1.690;2023-01-30T14:25:43;102181.22;;;17.09;60.47
27613;BME280;15036;48.094;-1.690;2023-01-30T14:35:44;102182.78;;;16.71;61.08
27613;BME280;15036;48.094;-1.690;2023-01-30T14:38:19;102194.50;;;16.86;60.76
27613;BME280;15036;48.094;-1.690;2023-01-30T14:49:03;102195.75;;;15.45;65.22
27613;BME280;15036;48.094;-1.690;2023-01-30T14:56:44;102200.63;;;15.65;65.83
27613;BME280;15036;48.094;-1.690;2023-01-30T15:06:59;102198.03;;;15.63;65.13
27613;BME280;15036;48.094;-1.690;2023-01-30T15:09:29;102206.97;;;15.86;64.97
27613;BME280;15036;48.094;-1.690;2023-01-30T15:33:16;102215.59;;;15.83;62.74
27613;BME280;15036;48.094;-1.690;2023-01-30T15:35:42;102211.66;;;15.71;63.06
27613;BME280;15036;48.094;-1.690;2023-01-30T15:40:48;102219.25;;;16.11;60.85
27613;BME280;15036;48.094;-1.690;2023-01-30T15:51:36;102228.84;;;15.73;60.54
27613;BME280;15036;48.094;-1.690;2023-01-30T15:54:08;102234.66;;;15.85;60.23
27613;BME280;15036;48.094;-1.690;2023-01-30T15:56:35;102228.19;;;15.92;60.07